sensor_id;sensor_type;location;lat;lon;timestamp;temperature;humidity
53711;DHT22;39605;52.704;6.752;2023-03-21T00:01:36;9.30;99.90
53711;DHT22;39605;52.704;6.752;2023-03-21T00:04:02;9.20;99.90
53711;DHT22;39605;52.704;6.752;2023-03-21T00:06:28;9.30;99.90
53711;DHT22;39605;52.704;6.752;2023-03-21T00:08:53;9.30;99.90
53711;DHT22;39605;52.704;6.752;2023-03-21T00:11:19;9.30;99.90
53711;DHT22;39605;52.704;6.752;2023-03-21T00:13:46;9.30;99.90
53711;DHT22;39605;52.704;6.752;2023-03-21T00:16:17;9.40;99.90
53711;DHT22;39605;52.704;6.752;2023-03-21T00:18:44;9.30;99.90
53711;DHT22;39605;52.704;6.752;2023-03-21T00:21:13;9.30;99.90
53711;DHT22;39605;52.704;6.752;2023-03-21T00:23:42;9.40;99.90
53711;DHT22;39605;52.704;6.752;2023-03-21T00:26:09;9.40;99.90
53711;DHT22;39605;52.704;6.752;2023-03-21T00:28:39;9.40;99.90
53711;DHT22;39605;52.704;6.752;2023-03-21T00:31:05;9.40;99.90
53711;DHT22;39605;52.704;6.752;2023-03-21T00:33:32;9.40;99.90
53711;DHT22;39605;52.704;6.752;2023-03-21T00:35:59;9.40;99.90
53711;DHT22;39605;52.704;6.752;2023-03-21T00:38:26;9.40;99.90
53711;DHT22;39605;52.704;6.752;2023-03-21T00:40:52;9.40;99.90
53711;DHT22;39605;52.704;6.752;2023-03-21T00:43:18;9.40;99.90
53711;DHT22;39605;52.704;6.752;2023-03-21T00:45:49;9.40;99.90
53711;DHT22;39605;52.704;6.752;2023-03-21T00:48:15;9.40;99.90
53711;DHT22;39605;52.704;6.752;2023-03-21T00:50:41;9.40;99.90
53711;DHT22;39605;52.704;6.752;2023-03-21T00:53:09;9.40;99.90
53711;DHT22;39605;52.704;6.752;2023-03-21T00:55:35;9.40;99.90
53711;DHT22;39605;52.704;6.752;2023-03-21T00:58:03;9.40;99.90
53711;DHT22;39605;52.704;6.752;2023-03-21T01:00:29;9.40;99.90
53711;DHT22;39605;52.704;6.752;2023-03-21T01:02:55;9.40;99.90
53711;DHT22;39605;52.704;6.752;2023-03-21T01:05:23;9.50;99.90
53711;DHT22;39605;52.704;6.752;2023-03-21T01:08:11;9.50;99.90
53711;DHT22;39605;52.704;6.752;2023-03-21T01:10:43;9.50;99.90
53711;DHT22;39605;52.704;6.752;2023-03-21T01:13:09;9.50;99.90
53711;DHT22;39605;52.704;6.752;2023-03-21T01:15:36;9.50;99.90
53711;DHT22;39605;52.704;6.752;2023-03-21T01:18:02;9.50;99.90
53711;DHT22;39605;52.704;6.752;2023-03-21T01:20:28;9.50;99.90
53711;DHT22;39605;52.704;6.752;2023-03-21T01:22:54;9.50;99.90
53711;DHT22;39605;52.704;6.752;2023-03-21T01:25:20;9.50;99.90
53711;DHT22;39605;52.704;6.752;2023-03-21T01:27:46;9.50;99.90
53711;DHT22;39605;52.704;6.752;2023-03-21T01:30:12;9.50;99.90
53711;DHT22;39605;52.704;6.752;2023-03-21T01:32:38;9.60;99.90
53711;DHT22;39605;52.704;6.752;2023-03-21T01:35:04;9.60;99.90
53711;DHT22;39605;52.704;6.752;2023-03-21T01:37:31;9.60;99.90
53711;DHT22;39605;52.704;6.752;2023-03-21T01:39:57;9.60;99.90
53711;DHT22;39605;52.704;6.752;2023-03-21T01:42:22;9.60;99.90
53711;DHT22;39605;52.704;6.752;2023-03-21T01:45:01;9.60;99.90
53711;DHT22;39605;52.704;6.752;2023-03-21T01:47:27;9.60;99.90
53711;DHT22;39605;52.704;6.752;2023-03-21T01:49:56;9.60;99.90
53711;DHT22;39605;52.704;6.752;2023-03-21T01:52:33;9.60;99.90
53711;DHT22;39605;52.704;6.752;2023-03-21T01:55:06;9.60;99.90
53711;DHT22;39605;52.704;6.752;2023-03-21T01:57:37;9.60;99.90
53711;DHT22;39605;52.704;6.752;2023-03-21T02:00:06;9.60;99.90
53711;DHT22;39605;52.704;6.752;2023-03-21T02:02:38;9.60;99.90
53711;DHT22;39605;52.704;6.752;2023-03-21T02:08:03;9.60;99.90
53711;DHT22;39605;52.704;6.752;2023-03-21T02:10:31;9.60;99.90
53711;DHT22;39605;52.704;6.752;2023-03-21T02:13:00;9.60;99.90
53711;DHT22;39605;52.704;6.752;2023-03-21T02:15:34;9.60;99.90
53711;DHT22;39605;52.704;6.752;2023-03-21T02:18:21;9.60;99.90
53711;DHT22;39605;52.704;6.752;2023-03-21T02:21:01;9.60;99.90
53711;DHT22;39605;52.704;6.752;2023-03-21T02:29:14;9.60;99.90
53711;DHT22;39605;52.704;6.752;2023-03-21T02:37:31;9.60;99.90
53711;DHT22;39605;52.704;6.752;2023-03-21T02:40:25;9.60;99.90
53711;DHT22;39605;52.704;6.752;2023-03-21T02:43:06;9.60;99.90
53711;DHT22;39605;52.704;6.752;2023-03-21T02:45:56;9.50;99.90
53711;DHT22;39605;52.704;6.752;2023-03-21T02:48:31;9.60;99.90
53711;DHT22;39605;52.704;6.752;2023-03-21T02:51:00;9.60;99.90
53711;DHT22;39605;52.704;6.752;2023-03-21T02:53:30;9.60;99.90
53711;DHT22;39605;52.704;6.752;2023-03-21T02:55:59;9.60;99.90
53711;DHT22;39605;52.704;6.752;2023-03-21T02:58:27;9.60;99.90
53711;DHT22;39605;52.704;6.752;2023-03-21T03:00:54;9.60;99.90
53711;DHT22;39605;52.704;6.752;2023-03-21T03:03:21;9.60;99.90
53711;DHT22;39605;52.704;6.752;2023-03-21T03:05:51;9.60;99.90
53711;DHT22;39605;52.704;6.752;2023-03-21T03:11:31;9.60;99.90
53711;DHT22;39605;52.704;6.752;2023-03-21T03:14:36;9.60;99.90
53711;DHT22;39605;52.704;6.752;2023-03-21T03:25:48;9.60;99.90
53711;DHT22;39605;52.704;6.752;2023-03-21T03:28:20;9.60;99.90
53711;DHT22;39605;52.704;6.752;2023-03-21T03:30:48;9.60;99.90
53711;DHT22;39605;52.704;6.752;2023-03-21T03:33:16;9.60;99.90
53711;DHT22;39605;52.704;6.752;2023-03-21T03:35:49;9.60;99.90
53711;DHT22;39605;52.704;6.752;2023-03-21T03:38:15;9.60;99.90
53711;DHT22;39605;52.704;6.752;2023-03-21T03:40:52;9.60;99.90
53711;DHT22;39605;52.704;6.752;2023-03-21T03:43:23;9.60;99.90
53711;DHT22;39605;52.704;6.752;2023-03-21T03:46:03;9.60;99.90
53711;DHT22;39605;52.704;6.752;2023-03-21T03:48:47;9.50;99.90
53711;DHT22;39605;52.704;6.752;2023-03-21T03:51:22;9.60;99.90
53711;DHT22;39605;52.704;6.752;2023-03-21T03:53:56;9.60;99.90
53711;DHT22;39605;52.704;6.752;2023-03-21T03:56:24;9.60;99.90
53711;DHT22;39605;52.704;6.752;2023-03-21T03:58:51;9.60;99.90
53711;DHT22;39605;52.704;6.752;2023-03-21T04:01:16;9.50;99.90
53711;DHT22;39605;52.704;6.752;2023-03-21T04:03:45;9.60;99.90
53711;DHT22;39605;52.704;6.752;2023-03-21T04:06:11;9.60;99.90
53711;DHT22;39605;52.704;6.752;2023-03-21T04:08:38;9.50;99.90
53711;DHT22;39605;52.704;6.752;2023-03-21T04:11:03;9.60;99.90
53711;DHT22;39605;52.704;6.752;2023-03-21T04:13:30;9.50;99.90
53711;DHT22;39605;52.704;6.752;2023-03-21T04:15:56;9.50;99.90
53711;DHT22;39605;52.704;6.752;2023-03-21T04:18:21;9.60;99.90
53711;DHT22;39605;52.704;6.752;2023-03-21T04:20:50;9.60;99.90
53711;DHT22;39605;52.704;6.752;2023-03-21T04:23:17;9.50;99.90
53711;DHT22;39605;52.704;6.752;2023-03-21T04:25:44;9.50;99.90
53711;DHT22;39605;52.704;6.752;2023-03-21T04:28:10;9.50;99.90
53711;DHT22;39605;52.704;6.752;2023-03-21T04:30:36;9.50;99.90
53711;DHT22;39605;52.704;6.752;2023-03-21T04:33:02;9.50;99.90
53711;DHT22;39605;52.704;6.752;2023-03-21T04:35:28;9.50;99.90
53711;DHT22;39605;52.704;6.752;2023-03-21T04:37:54;9.50;99.90
53711;DHT22;39605;52.704;6.752;2023-03-21T04:40:20;9.50;99.90
53711;DHT22;39605;52.704;6.752;2023-03-21T04:42:47;9.50;99.90
53711;DHT22;39605;52.704;6.752;2023-03-21T04:45:14;9.50;99.90
53711;DHT22;39605;52.704;6.752;2023-03-21T04:47:40;9.50;99.90
53711;DHT22;39605;52.704;6.752;2023-03-21T04:50:08;9.50;99.90
53711;DHT22;39605;52.704;6.752;2023-03-21T04:52:34;9.50;99.90
53711;DHT22;39605;52.704;6.752;2023-03-21T04:55:00;9.50;99.90
53711;DHT22;39605;52.704;6.752;2023-03-21T04:57:26;9.50;99.90
53711;DHT22;39605;52.704;6.752;2023-03-21T04:59:52;9.50;99.90
53711;DHT22;39605;52.704;6.752;2023-03-21T05:02:17;9.50;99.90
53711;DHT22;39605;52.704;6.752;2023-03-21T05:04:43;9.50;99.90
53711;DHT22;39605;52.704;6.752;2023-03-21T05:07:09;9.50;99.90
53711;DHT22;39605;52.704;6.752;2023-03-21T05:09:34;9.50;99.90
53711;DHT22;39605;52.704;6.752;2023-03-21T05:12:00;9.50;99.90
53711;DHT22;39605;52.704;6.752;2023-03-21T05:14:26;9.50;99.90
53711;DHT22;39605;52.704;6.752;2023-03-21T05:16:52;9.50;99.90
53711;DHT22;39605;52.704;6.752;2023-03-21T05:19:30;9.50;99.90
53711;DHT22;39605;52.704;6.752;2023-03-21T05:22:08;9.50;99.90
53711;DHT22;39605;52.704;6.752;2023-03-21T05:24:34;9.40;99.90
53711;DHT22;39605;52.704;6.752;2023-03-21T05:27:03;9.40;99.90
53711;DHT22;39605;52.704;6.752;2023-03-21T05:29:31;9.40;99.90
53711;DHT22;39605;52.704;6.752;2023-03-21T05:31:58;9.40;99.90
53711;DHT22;39605;52.704;6.752;2023-03-21T05:34:24;9.40;99.90
53711;DHT22;39605;52.704;6.752;2023-03-21T05:36:51;9.50;99.90
53711;DHT22;39605;52.704;6.752;2023-03-21T05:39:18;9.40;99.90
53711;DHT22;39605;52.704;6.752;2023-03-21T05:41:44;9.50;99.90
53711;DHT22;39605;52.704;6.752;2023-03-21T05:44:09;9.40;99.90
53711;DHT22;39605;52.704;6.752;2023-03-21T05:46:35;9.40;99.90
53711;DHT22;39605;52.704;6.752;2023-03-21T05:49:01;9.40;99.90
53711;DHT22;39605;52.704;6.752;2023-03-21T05:51:26;9.40;99.90
53711;DHT22;39605;52.704;6.752;2023-03-21T05:53:52;9.40;99.90
53711;DHT22;39605;52.704;6.752;2023-03-21T05:56:18;9.40;99.90
53711;DHT22;39605;52.704;6.752;2023-03-21T05:58:44;9.40;99.90
53711;DHT22;39605;52.704;6.752;2023-03-21T06:01:09;9.40;99.90
53711;DHT22;39605;52.704;6.752;2023-03-21T06:03:35;9.40;99.90
53711;DHT22;39605;52.704;6.752;2023-03-21T06:06:01;9.40;99.90
53711;DHT22;39605;52.704;6.752;2023-03-21T06:08:28;9.40;99.90
53711;DHT22;39605;52.704;6.752;2023-03-21T06:10:54;9.40;99.90
53711;DHT22;39605;52.704;6.752;2023-03-21T06:13:20;9.40;99.90
53711;DHT22;39605;52.704;6.752;2023-03-21T06:15:46;9.50;99.90
53711;DHT22;39605;52.704;6.752;2023-03-21T06:18:12;9.40;99.90
53711;DHT22;39605;52.704;6.752;2023-03-21T06:20:37;9.50;99.90
53711;DHT22;39605;52.704;6.752;2023-03-21T06:23:03;9.50;99.90
53711;DHT22;39605;52.704;6.752;2023-03-21T06:25:29;9.50;99.90
53711;DHT22;39605;52.704;6.752;2023-03-21T06:27:55;9.50;99.90
53711;DHT22;39605;52.704;6.752;2023-03-21T06:30:21;9.50;99.90
53711;DHT22;39605;52.704;6.752;2023-03-21T06:32:46;9.50;99.90
53711;DHT22;39605;52.704;6.752;2023-03-21T06:35:12;9.50;99.90
53711;DHT22;39605;52.704;6.752;2023-03-21T06:37:38;9.50;99.90
53711;DHT22;39605;52.704;6.752;2023-03-21T06:40:04;9.50;99.90
53711;DHT22;39605;52.704;6.752;2023-03-21T06:42:30;9.60;99.90
53711;DHT22;39605;52.704;6.752;2023-03-21T06:44:57;9.60;99.90
53711;DHT22;39605;52.704;6.752;2023-03-21T06:47:23;9.60;99.90
53711;DHT22;39605;52.704;6.752;2023-03-21T06:49:48;9.60;99.90
53711;DHT22;39605;52.704;6.752;2023-03-21T06:52:14;9.60;99.90
53711;DHT22;39605;52.704;6.752;2023-03-21T06:54:40;9.60;99.90
53711;DHT22;39605;52.704;6.752;2023-03-21T06:57:09;9.60;99.90
53711;DHT22;39605;52.704;6.752;2023-03-21T06:59:35;9.60;99.90
53711;DHT22;39605;52.704;6.752;2023-03-21T07:02:01;9.60;99.90
53711;DHT22;39605;52.704;6.752;2023-03-21T07:04:27;9.60;99.90
53711;DHT22;39605;52.704;6.752;2023-03-21T07:06:53;9.60;99.90
53711;DHT22;39605;52.704;6.752;2023-03-21T07:09:19;9.60;99.90
53711;DHT22;39605;52.704;6.752;2023-03-21T07:11:49;9.60;99.90
53711;DHT22;39605;52.704;6.752;2023-03-21T07:14:18;9.60;99.90
53711;DHT22;39605;52.704;6.752;2023-03-21T07:16:44;9.60;99.90
53711;DHT22;39605;52.704;6.752;2023-03-21T07:19:09;9.60;99.90
53711;DHT22;39605;52.704;6.752;2023-03-21T07:21:35;9.60;99.90
53711;DHT22;39605;52.704;6.752;2023-03-21T07:24:01;9.60;99.90
53711;DHT22;39605;52.704;6.752;2023-03-21T07:26:26;9.60;99.90
53711;DHT22;39605;52.704;6.752;2023-03-21T07:28:52;9.60;99.90
53711;DHT22;39605;52.704;6.752;2023-03-21T07:31:19;9.60;99.90
53711;DHT22;39605;52.704;6.752;2023-03-21T07:33:44;9.60;99.90
53711;DHT22;39605;52.704;6.752;2023-03-21T07:36:15;9.60;99.90
53711;DHT22;39605;52.704;6.752;2023-03-21T07:38:42;9.60;99.90
53711;DHT22;39605;52.704;6.752;2023-03-21T07:41:08;9.60;99.90
53711;DHT22;39605;52.704;6.752;2023-03-21T07:43:34;9.60;99.90
53711;DHT22;39605;52.704;6.752;2023-03-21T07:46:00;9.60;99.90
53711;DHT22;39605;52.704;6.752;2023-03-21T07:48:27;9.60;99.90
53711;DHT22;39605;52.704;6.752;2023-03-21T07:50:53;9.60;99.90
53711;DHT22;39605;52.704;6.752;2023-03-21T07:53:19;9.60;99.90
53711;DHT22;39605;52.704;6.752;2023-03-21T07:55:51;9.70;99.90
53711;DHT22;39605;52.704;6.752;2023-03-21T07:58:18;9.70;99.90
53711;DHT22;39605;52.704;6.752;2023-03-21T08:00:43;9.70;99.90
53711;DHT22;39605;52.704;6.752;2023-03-21T08:03:09;9.70;99.90
53711;DHT22;39605;52.704;6.752;2023-03-21T08:05:36;9.70;99.90
53711;DHT22;39605;52.704;6.752;2023-03-21T08:08:03;9.70;99.90
53711;DHT22;39605;52.704;6.752;2023-03-21T08:10:29;9.70;99.90
53711;DHT22;39605;52.704;6.752;2023-03-21T08:12:55;9.80;99.90
53711;DHT22;39605;52.704;6.752;2023-03-21T08:15:21;9.80;99.90
53711;DHT22;39605;52.704;6.752;2023-03-21T08:17:47;9.80;99.90
53711;DHT22;39605;52.704;6.752;2023-03-21T08:20:18;9.80;99.90
53711;DHT22;39605;52.704;6.752;2023-03-21T08:22:46;9.80;99.90
53711;DHT22;39605;52.704;6.752;2023-03-21T08:25:14;9.90;99.90
53711;DHT22;39605;52.704;6.752;2023-03-21T08:27:44;9.90;99.90
53711;DHT22;39605;52.704;6.752;2023-03-21T08:30:12;9.90;99.90
53711;DHT22;39605;52.704;6.752;2023-03-21T08:32:39;9.90;99.90
53711;DHT22;39605;52.704;6.752;2023-03-21T08:35:09;9.90;99.90
53711;DHT22;39605;52.704;6.752;2023-03-21T08:37:36;10.00;99.90
53711;DHT22;39605;52.704;6.752;2023-03-21T08:40:03;10.00;99.90
53711;DHT22;39605;52.704;6.752;2023-03-21T08:42:33;10.10;99.90
53711;DHT22;39605;52.704;6.752;2023-03-21T08:45:00;10.10;99.90
53711;DHT22;39605;52.704;6.752;2023-03-21T08:47:25;10.10;99.90
53711;DHT22;39605;52.704;6.752;2023-03-21T08:49:51;10.10;99.90
53711;DHT22;39605;52.704;6.752;2023-03-21T08:52:17;10.10;99.90
53711;DHT22;39605;52.704;6.752;2023-03-21T08:54:42;10.10;99.90
53711;DHT22;39605;52.704;6.752;2023-03-21T08:57:10;10.10;99.90
53711;DHT22;39605;52.704;6.752;2023-03-21T08:59:36;10.00;99.90
53711;DHT22;39605;52.704;6.752;2023-03-21T09:02:02;10.10;99.90
53711;DHT22;39605;52.704;6.752;2023-03-21T09:04:28;10.10;99.90
53711;DHT22;39605;52.704;6.752;2023-03-21T09:06:55;10.10;99.90
53711;DHT22;39605;52.704;6.752;2023-03-21T09:09:21;10.20;99.90
53711;DHT22;39605;52.704;6.752;2023-03-21T09:11:47;10.10;99.90
53711;DHT22;39605;52.704;6.752;2023-03-21T09:14:13;10.20;99.90
53711;DHT22;39605;52.704;6.752;2023-03-21T09:16:39;10.20;99.90
53711;DHT22;39605;52.704;6.752;2023-03-21T09:19:05;10.20;99.90
53711;DHT22;39605;52.704;6.752;2023-03-21T09:21:33;10.20;99.90
53711;DHT22;39605;52.704;6.752;2023-03-21T09:24:00;10.20;99.90
53711;DHT22;39605;52.704;6.752;2023-03-21T09:26:27;10.20;99.90
53711;DHT22;39605;52.704;6.752;2023-03-21T09:28:56;10.20;99.90
53711;DHT22;39605;52.704;6.752;2023-03-21T09:31:23;10.20;99.90
53711;DHT22;39605;52.704;6.752;2023-03-21T09:33:50;10.20;99.90
53711;DHT22;39605;52.704;6.752;2023-03-21T09:36:16;10.20;99.90
53711;DHT22;39605;52.704;6.752;2023-03-21T09:38:44;10.30;99.90
53711;DHT22;39605;52.704;6.752;2023-03-21T09:46:59;10.40;99.90
53711;DHT22;39605;52.704;6.752;2023-03-21T09:49:31;10.40;99.90
53711;DHT22;39605;52.704;6.752;2023-03-21T09:52:02;10.50;99.90
53711;DHT22;39605;52.704;6.752;2023-03-21T09:54:37;10.50;99.90
53711;DHT22;39605;52.704;6.752;2023-03-21T09:59:52;10.50;99.90
53711;DHT22;39605;52.704;6.752;2023-03-21T10:02:20;10.50;99.90
53711;DHT22;39605;52.704;6.752;2023-03-21T10:05:01;10.60;99.90
53711;DHT22;39605;52.704;6.752;2023-03-21T10:07:30;10.60;99.90
53711;DHT22;39605;52.704;6.752;2023-03-21T10:10:01;10.60;99.90
53711;DHT22;39605;52.704;6.752;2023-03-21T10:12:29;10.60;99.90
53711;DHT22;39605;52.704;6.752;2023-03-21T10:14:57;10.60;99.90
53711;DHT22;39605;52.704;6.752;2023-03-21T10:17:33;10.50;99.90
53711;DHT22;39605;52.704;6.752;2023-03-21T10:20:12;10.50;99.90
53711;DHT22;39605;52.704;6.752;2023-03-21T10:22:39;10.50;99.90
53711;DHT22;39605;52.704;6.752;2023-03-21T10:25:06;10.50;99.90
53711;DHT22;39605;52.704;6.752;2023-03-21T10:27:33;10.60;99.90
53711;DHT22;39605;52.704;6.752;2023-03-21T10:30:02;10.60;99.90
53711;DHT22;39605;52.704;6.752;2023-03-21T10:32:30;10.60;99.90
53711;DHT22;39605;52.704;6.752;2023-03-21T10:34:56;10.60;99.90
53711;DHT22;39605;52.704;6.752;2023-03-21T10:37:23;10.70;99.90
53711;DHT22;39605;52.704;6.752;2023-03-21T10:39:52;10.80;99.90
53711;DHT22;39605;52.704;6.752;2023-03-21T10:42:20;10.80;99.90
53711;DHT22;39605;52.704;6.752;2023-03-21T10:44:49;10.80;99.90
53711;DHT22;39605;52.704;6.752;2023-03-21T10:47:21;10.80;99.90
53711;DHT22;39605;52.704;6.752;2023-03-21T10:49:48;10.80;99.90
53711;DHT22;39605;52.704;6.752;2023-03-21T10:52:18;10.80;99.90
53711;DHT22;39605;52.704;6.752;2023-03-21T10:54:45;10.80;99.90
53711;DHT22;39605;52.704;6.752;2023-03-21T10:57:12;10.70;99.90
53711;DHT22;39605;52.704;6.752;2023-03-21T10:59:44;10.80;99.90
53711;DHT22;39605;52.704;6.752;2023-03-21T11:02:34;10.80;99.90
53711;DHT22;39605;52.704;6.752;2023-03-21T11:05:06;10.80;99.90
53711;DHT22;39605;52.704;6.752;2023-03-21T11:07:34;10.80;99.90
53711;DHT22;39605;52.704;6.752;2023-03-21T11:10:12;10.90;99.90
53711;DHT22;39605;52.704;6.752;2023-03-21T11:12:39;10.90;99.90
53711;DHT22;39605;52.704;6.752;2023-03-21T11:15:29;10.90;99.90
53711;DHT22;39605;52.704;6.752;2023-03-21T11:17:56;10.90;99.90
53711;DHT22;39605;52.704;6.752;2023-03-21T11:20:22;10.90;99.90
53711;DHT22;39605;52.704;6.752;2023-03-21T11:22:48;11.00;99.90
53711;DHT22;39605;52.704;6.752;2023-03-21T11:25:25;11.00;99.90
53711;DHT22;39605;52.704;6.752;2023-03-21T11:27:55;11.10;99.90
53711;DHT22;39605;52.704;6.752;2023-03-21T11:30:26;11.20;99.90
53711;DHT22;39605;52.704;6.752;2023-03-21T11:32:57;11.30;99.90
53711;DHT22;39605;52.704;6.752;2023-03-21T11:35:43;11.50;99.90
53711;DHT22;39605;52.704;6.752;2023-03-21T11:38:37;11.60;99.90
53711;DHT22;39605;52.704;6.752;2023-03-21T11:41:05;11.70;99.90
53711;DHT22;39605;52.704;6.752;2023-03-21T11:43:35;11.70;99.90
53711;DHT22;39605;52.704;6.752;2023-03-21T11:48:41;11.70;99.90
53711;DHT22;39605;52.704;6.752;2023-03-21T11:56:43;11.70;99.90
53711;DHT22;39605;52.704;6.752;2023-03-21T12:07:12;11.90;99.90
53711;DHT22;39605;52.704;6.752;2023-03-21T12:20:58;12.30;99.90
53711;DHT22;39605;52.704;6.752;2023-03-21T12:23:45;12.40;99.90
53711;DHT22;39605;52.704;6.752;2023-03-21T12:29:12;12.40;99.90
53711;DHT22;39605;52.704;6.752;2023-03-21T12:32:14;12.50;99.90
53711;DHT22;39605;52.704;6.752;2023-03-21T12:43:21;12.50;99.90
53711;DHT22;39605;52.704;6.752;2023-03-21T12:45:53;12.40;99.90
53711;DHT22;39605;52.704;6.752;2023-03-21T12:48:25;12.40;99.90
53711;DHT22;39605;52.704;6.752;2023-03-21T12:50:54;12.30;99.90
53711;DHT22;39605;52.704;6.752;2023-03-21T12:53:27;12.30;99.90
53711;DHT22;39605;52.704;6.752;2023-03-21T12:55:58;12.30;99.90
53711;DHT22;39605;52.704;6.752;2023-03-21T12:58:27;12.20;99.90
53711;DHT22;39605;52.704;6.752;2023-03-21T13:00:57;12.20;99.90
53711;DHT22;39605;52.704;6.752;2023-03-21T13:03:35;12.20;99.90
53711;DHT22;39605;52.704;6.752;2023-03-21T13:06:05;12.20;99.90
53711;DHT22;39605;52.704;6.752;2023-03-21T13:11:06;12.40;99.90
53711;DHT22;39605;52.704;6.752;2023-03-21T13:16:22;12.70;99.90
53711;DHT22;39605;52.704;6.752;2023-03-21T13:19:27;12.80;99.90
53711;DHT22;39605;52.704;6.752;2023-03-21T13:24:58;13.00;99.90
53711;DHT22;39605;52.704;6.752;2023-03-21T13:27:32;13.10;99.90
53711;DHT22;39605;52.704;6.752;2023-03-21T13:32:48;13.00;99.90
53711;DHT22;39605;52.704;6.752;2023-03-21T13:35:20;12.90;99.90
53711;DHT22;39605;52.704;6.752;2023-03-21T13:38:24;13.00;99.90
53711;DHT22;39605;52.704;6.752;2023-03-21T13:41:10;12.90;99.90
53711;DHT22;39605;52.704;6.752;2023-03-21T13:49:04;12.80;99.90
53711;DHT22;39605;52.704;6.752;2023-03-21T13:51:43;12.80;99.90
53711;DHT22;39605;52.704;6.752;2023-03-21T14:02:17;12.80;99.90
53711;DHT22;39605;52.704;6.752;2023-03-21T14:04:45;12.80;99.90
53711;DHT22;39605;52.704;6.752;2023-03-21T14:07:27;12.70;99.90
53711;DHT22;39605;52.704;6.752;2023-03-21T14:09:58;12.70;99.90
53711;DHT22;39605;52.704;6.752;2023-03-21T14:12:33;12.80;99.90
53711;DHT22;39605;52.704;6.752;2023-03-21T14:17:50;12.90;99.90
53711;DHT22;39605;52.704;6.752;2023-03-21T14:20:29;13.00;99.90
53711;DHT22;39605;52.704;6.752;2023-03-21T14:22:56;13.10;99.90
53711;DHT22;39605;52.704;6.752;2023-03-21T14:25:24;13.10;99.90
53711;DHT22;39605;52.704;6.752;2023-03-21T14:27:53;13.10;99.90
53711;DHT22;39605;52.704;6.752;2023-03-21T14:30:35;13.10;99.90
53711;DHT22;39605;52.704;6.752;2023-03-21T14:36:02;13.40;99.90
53711;DHT22;39605;52.704;6.752;2023-03-21T14:38:35;13.50;99.90
53711;DHT22;39605;52.704;6.752;2023-03-21T14:41:01;13.60;99.90
53711;DHT22;39605;52.704;6.752;2023-03-21T14:43:27;13.70;99.90
53711;DHT22;39605;52.704;6.752;2023-03-21T14:45:55;13.70;99.90
53711;DHT22;39605;52.704;6.752;2023-03-21T14:48:32;13.80;99.90
53711;DHT22;39605;52.704;6.752;2023-03-21T14:51:06;13.80;99.90
53711;DHT22;39605;52.704;6.752;2023-03-21T14:53:37;13.70;99.90
53711;DHT22;39605;52.704;6.752;2023-03-21T14:58:30;13.50;99.90
53711;DHT22;39605;52.704;6.752;2023-03-21T15:01:00;13.50;99.90
53711;DHT22;39605;52.704;6.752;2023-03-21T15:03:30;13.50;99.90
53711;DHT22;39605;52.704;6.752;2023-03-21T15:05:57;13.50;99.90
53711;DHT22;39605;52.704;6.752;2023-03-21T15:08:25;13.60;99.90
53711;DHT22;39605;52.704;6.752;2023-03-21T15:10:55;13.70;99.90
53711;DHT22;39605;52.704;6.752;2023-03-21T15:13:26;13.80;99.90
53711;DHT22;39605;52.704;6.752;2023-03-21T15:15:53;13.90;99.90
53711;DHT22;39605;52.704;6.752;2023-03-21T15:18:31;14.00;99.90
53711;DHT22;39605;52.704;6.752;2023-03-21T15:21:08;14.00;99.90
53711;DHT22;39605;52.704;6.752;2023-03-21T15:26:03;13.80;99.90
53711;DHT22;39605;52.704;6.752;2023-03-21T15:28:32;13.70;99.90
53711;DHT22;39605;52.704;6.752;2023-03-21T15:30:58;13.70;99.90
53711;DHT22;39605;52.704;6.752;2023-03-21T15:33:25;13.50;99.90
53711;DHT22;39605;52.704;6.752;2023-03-21T15:35:53;13.50;99.90
53711;DHT22;39605;52.704;6.752;2023-03-21T15:38:33;13.40;99.90
53711;DHT22;39605;52.704;6.752;2023-03-21T15:46:49;13.30;99.90
53711;DHT22;39605;52.704;6.752;2023-03-21T15:51:53;13.20;99.90
53711;DHT22;39605;52.704;6.752;2023-03-21T15:54:29;13.20;99.90
53711;DHT22;39605;52.704;6.752;2023-03-21T15:57:13;13.10;99.90
53711;DHT22;39605;52.704;6.752;2023-03-21T15:59:41;13.10;99.90
53711;DHT22;39605;52.704;6.752;2023-03-21T16:02:20;13.10;99.90
53711;DHT22;39605;52.704;6.752;2023-03-21T16:05:29;13.00;99.90
53711;DHT22;39605;52.704;6.752;2023-03-21T16:07:48;13.00;99.90
53711;DHT22;39605;52.704;6.752;2023-03-21T16:10:36;13.00;99.90
53711;DHT22;39605;52.704;6.752;2023-03-21T16:13:03;13.00;99.90
53711;DHT22;39605;52.704;6.752;2023-03-21T16:15:29;13.00;99.90
53711;DHT22;39605;52.704;6.752;2023-03-21T16:18:00;13.00;99.90
53711;DHT22;39605;52.704;6.752;2023-03-21T16:20:34;13.00;99.90
53711;DHT22;39605;52.704;6.752;2023-03-21T16:23:01;13.10;99.90
53711;DHT22;39605;52.704;6.752;2023-03-21T16:25:29;13.00;99.90
53711;DHT22;39605;52.704;6.752;2023-03-21T16:27:55;13.00;99.90
53711;DHT22;39605;52.704;6.752;2023-03-21T16:30:22;13.00;99.90
53711;DHT22;39605;52.704;6.752;2023-03-21T16:32:48;13.00;99.90
53711;DHT22;39605;52.704;6.752;2023-03-21T16:35:17;13.00;99.90
53711;DHT22;39605;52.704;6.752;2023-03-21T16:37:43;13.00;99.90
53711;DHT22;39605;52.704;6.752;2023-03-21T16:40:36;12.90;99.90
53711;DHT22;39605;52.704;6.752;2023-03-21T16:43:00;12.90;99.90
53711;DHT22;39605;52.704;6.752;2023-03-21T16:45:26;12.90;99.90
53711;DHT22;39605;52.704;6.752;2023-03-21T16:47:53;12.90;99.90
53711;DHT22;39605;52.704;6.752;2023-03-21T16:50:38;12.80;99.90
53711;DHT22;39605;52.704;6.752;2023-03-21T16:53:04;12.80;99.90
53711;DHT22;39605;52.704;6.752;2023-03-21T16:55:31;12.80;99.90
53711;DHT22;39605;52.704;6.752;2023-03-21T16:57:58;12.70;99.90
53711;DHT22;39605;52.704;6.752;2023-03-21T17:00:25;12.60;99.90
53711;DHT22;39605;52.704;6.752;2023-03-21T17:02:53;12.50;99.90
53711;DHT22;39605;52.704;6.752;2023-03-21T17:05:21;12.40;99.90
53711;DHT22;39605;52.704;6.752;2023-03-21T17:07:47;12.30;99.90
53711;DHT22;39605;52.704;6.752;2023-03-21T17:10:16;12.30;99.90
53711;DHT22;39605;52.704;6.752;2023-03-21T17:12:43;12.20;99.90
53711;DHT22;39605;52.704;6.752;2023-03-21T17:15:09;12.10;99.90
53711;DHT22;39605;52.704;6.752;2023-03-21T17:17:36;12.00;99.90
53711;DHT22;39605;52.704;6.752;2023-03-21T17:20:17;12.00;99.90
53711;DHT22;39605;52.704;6.752;2023-03-21T17:22:44;12.00;99.90
53711;DHT22;39605;52.704;6.752;2023-03-21T17:25:10;11.90;99.90
53711;DHT22;39605;52.704;6.752;2023-03-21T17:27:36;11.90;99.90
53711;DHT22;39605;52.704;6.752;2023-03-21T17:30:05;11.90;99.90
53711;DHT22;39605;52.704;6.752;2023-03-21T17:32:35;11.90;99.90
53711;DHT22;39605;52.704;6.752;2023-03-21T17:35:00;11.90;99.90
53711;DHT22;39605;52.704;6.752;2023-03-21T17:37:26;11.90;99.90
53711;DHT22;39605;52.704;6.752;2023-03-21T17:39:52;11.80;99.90
53711;DHT22;39605;52.704;6.752;2023-03-21T17:42:17;11.80;99.90
53711;DHT22;39605;52.704;6.752;2023-03-21T17:44:45;11.80;99.90
53711;DHT22;39605;52.704;6.752;2023-03-21T17:47:11;11.80;99.90
53711;DHT22;39605;52.704;6.752;2023-03-21T17:49:37;11.80;99.90